SBOSBO RVN / EFRO
Speedbird OnlineSpeedbird Online RVN / EFRO

Rovaniemi Airport
22:12 -6°C

Location Rovaniemi, Finland
Latitude: 66.564796447754
Longitude: 25.830400466919
Local Time 22:13 on 20 Apr 2024
UTC +3 hours (Europe/Helsinki)
Currency £1 equals EUR 1.16
METAR EFRO 201850Z AUTO 04008KT CAVOK M06/M13 Q1020
TAF TAF EFRO 201726Z 2018/2118 03012KT CAVOK
Weather As Of 20 Apr 2024 22:12
Description Clear sky
Wind 15 km/h from North-East (40°)
Cloud Cover 0%
Precipitation Rain: none, Snow: none
Sunrise 05:12
Sunset 21:18
NOTAM 2 active NOTAM
Rotations During the last 90 days there were
120 flights from HEL
12 flights from TOS
1 flights from
120 flights to HEL
Web Airport Website | Wikipedia
Codes IATA: RVN
ICAO: EFRO
Altitude 196 Meter / 642 Feet
Distance 2,197 KM / 1,365 Miles
from London.
Runways
RunwayLength (m)Surface
033002Asphalt
213002Asphalt
Radio
TypeDescriptionFrequency
APPAPP125.8
ATISATIS117.7
GNDGND118.525
PMSVPMSV METRO125.1
TWRTWR118.7
Live ATC



Support Speedbird Online

© 2017-2024 Speedbird Online